sensor_id;sensor_type;location;lat;lon;timestamp;pressure;altitude;pressure_sealevel;temperature;humidity
11971;BME280;6045;42.682;23.294;2022-11-21T01:01:49;93295.22;;;11.70;98.83
11971;BME280;6045;42.682;23.294;2022-11-21T01:04:16;93301.88;;;11.67;98.29
11971;BME280;6045;42.682;23.294;2022-11-21T01:06:42;93286.91;;;11.71;98.75
11971;BME280;6045;42.682;23.294;2022-11-21T01:09:09;93277.28;;;11.75;98.68
11971;BME280;6045;42.682;23.294;2022-11-21T01:11:36;93263.09;;;11.80;98.56
11971;BME280;6045;42.682;23.294;2022-11-21T01:14:03;93273.00;;;11.84;97.10
11971;BME280;6045;42.682;23.294;2022-11-21T01:16:30;93281.56;;;11.76;97.21
11971;BME280;6045;42.682;23.294;2022-11-21T01:18:58;93278.88;;;11.81;97.06
11971;BME280;6045;42.682;23.294;2022-11-21T01:21:28;93290.41;;;11.82;96.67
11971;BME280;6045;42.682;23.294;2022-11-21T01:23:57;93271.38;;;11.73;95.69
11971;BME280;6045;42.682;23.294;2022-11-21T01:26:26;93300.81;;;11.63;96.12
11971;BME280;6045;42.682;23.294;2022-11-21T01:28:53;93295.19;;;11.54;96.44
11971;BME280;6045;42.682;23.294;2022-11-21T01:31:22;93304.03;;;11.60;97.12
11971;BME280;6045;42.682;23.294;2022-11-21T01:33:49;93304.56;;;11.57;97.04
11971;BME280;6045;42.682;23.294;2022-11-21T01:36:19;93297.88;;;11.59;97.34
11971;BME280;6045;42.682;23.294;2022-11-21T01:38:48;93288.50;;;11.67;97.11
11971;BME280;6045;42.682;23.294;2022-11-21T01:41:17;93269.28;;;11.75;97.24
11971;BME280;6045;42.682;23.294;2022-11-21T01:43:44;93252.94;;;11.77;96.98
11971;BME280;6045;42.682;23.294;2022-11-21T01:46:14;93267.13;;;11.82;96.40
11971;BME280;6045;42.682;23.294;2022-11-21T01:48:47;93274.88;;;11.84;95.71
11971;BME280;6045;42.682;23.294;2022-11-21T01:51:23;93252.13;;;11.71;95.87
11971;BME280;6045;42.682;23.294;2022-11-21T01:53:54;93273.81;;;11.39;96.50
11971;BME280;6045;42.682;23.294;2022-11-21T01:56:23;93272.47;;;11.37;98.19
11971;BME280;6045;42.682;23.294;2022-11-21T01:58:52;93271.13;;;11.24;98.73
11971;BME280;6045;42.682;23.294;2022-11-21T02:01:21;93252.38;;;11.19;99.21
11971;BME280;6045;42.682;23.294;2022-11-21T02:03:50;93257.47;;;11.31;99.68
11971;BME280;6045;42.682;23.294;2022-11-21T02:06:17;93267.38;;;11.40;99.18
11971;BME280;6045;42.682;23.294;2022-11-21T02:08:46;93275.41;;;11.30;98.86
11971;BME280;6045;42.682;23.294;2022-11-21T02:11:18;93278.88;;;11.36;99.28
11971;BME280;6045;42.682;23.294;2022-11-21T02:13:46;93275.94;;;11.32;99.81
11971;BME280;6045;42.682;23.294;2022-11-21T02:16:13;93243.56;;;11.09;99.48
11971;BME280;6045;42.682;23.294;2022-11-21T02:18:40;93271.66;;;11.11;99.98
11971;BME280;6045;42.682;23.294;2022-11-21T02:21:12;93262.56;;;11.17;100.00
11971;BME280;6045;42.682;23.294;2022-11-21T02:23:50;93264.72;;;11.30;100.00
11971;BME280;6045;42.682;23.294;2022-11-21T02:26:20;93252.94;;;11.36;100.00
11971;BME280;6045;42.682;23.294;2022-11-21T02:28:47;93265.50;;;11.46;99.05
11971;BME280;6045;42.682;23.294;2022-11-21T02:31:13;93272.47;;;11.47;98.79
11971;BME280;6045;42.682;23.294;2022-11-21T02:33:40;93262.81;;;11.41;98.54
11971;BME280;6045;42.682;23.294;2022-11-21T02:36:33;93255.88;;;11.40;98.62
11971;BME280;6045;42.682;23.294;2022-11-21T02:39:01;93264.44;;;11.32;99.15
11971;BME280;6045;42.682;23.294;2022-11-21T02:41:32;93243.56;;;11.29;99.46
11971;BME280;6045;42.682;23.294;2022-11-21T02:44:03;93257.47;;;11.16;99.82
11971;BME280;6045;42.682;23.294;2022-11-21T02:46:32;93252.13;;;11.11;100.00
11971;BME280;6045;42.682;23.294;2022-11-21T02:49:03;93252.66;;;11.08;100.00
11971;BME280;6045;42.682;23.294;2022-11-21T02:51:31;93252.66;;;11.18;100.00
11971;BME280;6045;42.682;23.294;2022-11-21T02:53:58;93241.97;;;11.28;100.00
11971;BME280;6045;42.682;23.294;2022-11-21T02:56:25;93231.00;;;11.44;99.95
11971;BME280;6045;42.682;23.294;2022-11-21T02:58:53;93245.69;;;11.57;99.74
11971;BME280;6045;42.682;23.294;2022-11-21T03:01:20;93212.00;;;11.56;99.20
11971;BME280;6045;42.682;23.294;2022-11-21T03:03:47;93183.09;;;11.53;99.61
11971;BME280;6045;42.682;23.294;2022-11-21T03:06:13;93182.28;;;11.47;99.32
11971;BME280;6045;42.682;23.294;2022-11-21T03:08:40;93176.69;;;11.44;98.15
11971;BME280;6045;42.682;23.294;2022-11-21T03:11:07;93220.00;;;11.61;95.60
11971;BME280;6045;42.682;23.294;2022-11-21T03:13:34;93196.97;;;11.65;94.65
11971;BME280;6045;42.682;23.294;2022-11-21T03:16:02;93179.59;;;11.73;94.59
11971;BME280;6045;42.682;23.294;2022-11-21T03:18:29;93205.56;;;11.77;90.09
11971;BME280;6045;42.682;23.294;2022-11-21T03:20:56;93203.34;;;11.94;91.76
11971;BME280;6045;42.682;23.294;2022-11-21T03:23:23;93211.66;;;11.88;93.54
11971;BME280;6045;42.682;23.294;2022-11-21T03:25:50;93212.72;;;11.97;94.23
11971;BME280;6045;42.682;23.294;2022-11-21T03:28:16;93200.94;;;12.03;92.86
11971;BME280;6045;42.682;23.294;2022-11-21T03:30:43;93203.53;;;12.18;91.38
11971;BME280;6045;42.682;23.294;2022-11-21T03:33:11;93205.88;;;12.29;91.78
11971;BME280;6045;42.682;23.294;2022-11-21T03:35:38;93211.22;;;12.34;91.95
11971;BME280;6045;42.682;23.294;2022-11-21T03:38:05;93196.75;;;12.41;90.36
11971;BME280;6045;42.682;23.294;2022-11-21T03:40:31;93220.28;;;12.49;90.90
11971;BME280;6045;42.682;23.294;2022-11-21T03:43:03;93212.06;;;12.30;89.93
11971;BME280;6045;42.682;23.294;2022-11-21T03:45:30;93171.06;;;12.29;90.69
11971;BME280;6045;42.682;23.294;2022-11-21T03:47:56;93181.88;;;12.14;91.67
11971;BME280;6045;42.682;23.294;2022-11-21T03:50:25;93208.19;;;11.87;92.30
11971;BME280;6045;42.682;23.294;2022-11-21T03:52:51;93198.78;;;11.95;92.74
11971;BME280;6045;42.682;23.294;2022-11-21T03:55:18;93190.75;;;11.95;91.88
11971;BME280;6045;42.682;23.294;2022-11-21T03:57:45;93147.66;;;11.96;92.06
11971;BME280;6045;42.682;23.294;2022-11-21T04:00:13;93182.19;;;11.98;85.50
11971;BME280;6045;42.682;23.294;2022-11-21T04:02:40;93167.88;;;12.22;84.67
11971;BME280;6045;42.682;23.294;2022-11-21T04:05:08;93179.06;;;12.34;87.49
11971;BME280;6045;42.682;23.294;2022-11-21T04:07:36;93184.47;;;12.29;88.97
11971;BME280;6045;42.682;23.294;2022-11-21T04:10:03;93183.44;;;12.15;85.51
11971;BME280;6045;42.682;23.294;2022-11-21T04:12:30;93175.31;;;12.41;82.40
11971;BME280;6045;42.682;23.294;2022-11-21T04:14:57;93170.19;;;12.44;86.26
11971;BME280;6045;42.682;23.294;2022-11-21T04:17:23;93173.16;;;12.43;85.84
11971;BME280;6045;42.682;23.294;2022-11-21T04:19:50;93172.03;;;12.49;85.90
11971;BME280;6045;42.682;23.294;2022-11-21T04:22:17;93175.19;;;12.61;84.26
11971;BME280;6045;42.682;23.294;2022-11-21T04:24:45;93167.66;;;12.63;85.56
11971;BME280;6045;42.682;23.294;2022-11-21T04:27:12;93168.78;;;12.57;85.87
11971;BME280;6045;42.682;23.294;2022-11-21T04:29:39;93181.88;;;12.63;86.65
11971;BME280;6045;42.682;23.294;2022-11-21T04:32:05;93189.94;;;12.58;85.71
11971;BME280;6045;42.682;23.294;2022-11-21T04:34:32;93166.63;;;12.59;85.12
11971;BME280;6045;42.682;23.294;2022-11-21T04:36:59;93182.06;;;12.72;80.69
11971;BME280;6045;42.682;23.294;2022-11-21T04:39:25;93185.75;;;12.86;78.30
11971;BME280;6045;42.682;23.294;2022-11-21T04:41:54;93193.56;;;13.21;75.82
11971;BME280;6045;42.682;23.294;2022-11-21T04:44:21;93182.22;;;13.29;74.64
11971;BME280;6045;42.682;23.294;2022-11-21T04:46:47;93187.66;;;13.53;72.39
11971;BME280;6045;42.682;23.294;2022-11-21T04:49:14;93200.13;;;13.67;72.99
11971;BME280;6045;42.682;23.294;2022-11-21T04:51:41;93181.38;;;13.62;76.57
11971;BME280;6045;42.682;23.294;2022-11-21T04:54:09;93194.09;;;13.23;79.78
11971;BME280;6045;42.682;23.294;2022-11-21T04:56:36;93171.06;;;13.17;76.49
11971;BME280;6045;42.682;23.294;2022-11-21T04:59:04;93215.03;;;13.21;80.15
11971;BME280;6045;42.682;23.294;2022-11-21T05:01:31;93197.81;;;13.27;81.56
11971;BME280;6045;42.682;23.294;2022-11-21T06:40:07;93425.41;;;9.51;83.46
11971;BME280;6045;42.682;23.294;2022-11-21T06:42:34;93425.88;;;9.48;83.44
11971;BME280;6045;42.682;23.294;2022-11-21T06:45:01;93437.00;;;9.40;84.47
11971;BME280;6045;42.682;23.294;2022-11-21T06:47:28;93432.72;;;9.39;85.26
11971;BME280;6045;42.682;23.294;2022-11-21T06:49:57;93456.28;;;9.47;85.29
11971;BME280;6045;42.682;23.294;2022-11-21T06:52:25;93473.16;;;9.31;85.45
11971;BME280;6045;42.682;23.294;2022-11-21T06:54:52;93482.53;;;9.12;85.81
11971;BME280;6045;42.682;23.294;2022-11-21T06:57:20;93490.97;;;9.04;86.82
11971;BME280;6045;42.682;23.294;2022-11-21T06:59:47;93496.94;;;8.89;87.10
11971;BME280;6045;42.682;23.294;2022-11-21T07:02:14;93507.44;;;8.79;87.74
11971;BME280;6045;42.682;23.294;2022-11-21T07:04:41;93512.34;;;8.87;88.10
11971;BME280;6045;42.682;23.294;2022-11-21T07:07:08;93526.91;;;8.80;88.23
11971;BME280;6045;42.682;23.294;2022-11-21T07:09:35;93519.56;;;8.70;88.23
11971;BME280;6045;42.682;23.294;2022-11-21T07:12:02;93524.03;;;8.32;88.87
11971;BME280;6045;42.682;23.294;2022-11-21T07:14:44;93542.75;;;8.37;90.58
11971;BME280;6045;42.682;23.294;2022-11-21T07:17:10;93539.53;;;8.35;90.96
11971;BME280;6045;42.682;23.294;2022-11-21T07:19:37;93558.72;;;8.37;91.26
11971;BME280;6045;42.682;23.294;2022-11-21T07:22:04;93559.78;;;8.36;90.16
11971;BME280;6045;42.682;23.294;2022-11-21T07:24:31;93560.75;;;8.30;90.15
11971;BME280;6045;42.682;23.294;2022-11-21T07:26:57;93569.25;;;8.15;90.64
11971;BME280;6045;42.682;23.294;2022-11-21T07:29:24;93568.94;;;8.11;90.83
11971;BME280;6045;42.682;23.294;2022-11-21T07:31:53;93586.16;;;7.92;90.57
11971;BME280;6045;42.682;23.294;2022-11-21T07:34:20;93578.44;;;7.91;91.10
11971;BME280;6045;42.682;23.294;2022-11-21T07:36:46;93593.00;;;7.88;91.87
11971;BME280;6045;42.682;23.294;2022-11-21T07:39:13;93604.97;;;8.02;92.02
11971;BME280;6045;42.682;23.294;2022-11-21T07:41:40;93603.44;;;7.78;90.52
11971;BME280;6045;42.682;23.294;2022-11-21T07:44:07;93608.88;;;7.83;90.49
11971;BME280;6045;42.682;23.294;2022-11-21T07:46:33;93608.41;;;7.86;89.68
11971;BME280;6045;42.682;23.294;2022-11-21T07:49:01;93622.59;;;7.92;90.54
11971;BME280;6045;42.682;23.294;2022-11-21T07:51:28;93621.31;;;7.94;90.05
11971;BME280;6045;42.682;23.294;2022-11-21T07:53:55;93620.63;;;7.87;90.13
11971;BME280;6045;42.682;23.294;2022-11-21T07:56:22;93620.84;;;7.97;90.38
11971;BME280;6045;42.682;23.294;2022-11-21T07:58:50;93631.09;;;8.05;90.78
11971;BME280;6045;42.682;23.294;2022-11-21T08:01:17;93627.00;;;8.14;90.73
11971;BME280;6045;42.682;23.294;2022-11-21T08:03:44;93647.59;;;8.19;88.94
11971;BME280;6045;42.682;23.294;2022-11-21T08:06:12;93650.41;;;8.01;87.53
11971;BME280;6045;42.682;23.294;2022-11-21T08:08:39;93649.63;;;8.00;88.25
11971;BME280;6045;42.682;23.294;2022-11-21T08:11:06;93645.69;;;8.03;89.21
11971;BME280;6045;42.682;23.294;2022-11-21T08:13:34;93660.84;;;8.02;88.70
11971;BME280;6045;42.682;23.294;2022-11-21T08:16:01;93667.66;;;8.10;89.20
11971;BME280;6045;42.682;23.294;2022-11-21T08:18:28;93661.81;;;8.13;89.56
11971;BME280;6045;42.682;23.294;2022-11-21T08:20:55;93676.28;;;8.17;88.88
11971;BME280;6045;42.682;23.294;2022-11-21T08:23:23;93683.72;;;8.03;87.77
11971;BME280;6045;42.682;23.294;2022-11-21T08:25:50;93691.50;;;8.05;88.16
11971;BME280;6045;42.682;23.294;2022-11-21T08:28:16;93686.50;;;8.08;87.91
11971;BME280;6045;42.682;23.294;2022-11-21T08:30:43;93686.50;;;8.08;87.01
11971;BME280;6045;42.682;23.294;2022-11-21T08:33:10;93690.94;;;8.03;86.41
11971;BME280;6045;42.682;23.294;2022-11-21T08:35:37;93690.78;;;8.09;86.33
11971;BME280;6045;42.682;23.294;2022-11-21T08:38:04;93688.13;;;8.09;86.07
11971;BME280;6045;42.682;23.294;2022-11-21T08:40:34;93692.41;;;7.99;86.16
11971;BME280;6045;42.682;23.294;2022-11-21T08:43:02;93682.44;;;8.06;86.06
11971;BME280;6045;42.682;23.294;2022-11-21T08:45:30;93694.78;;;8.23;85.80
11971;BME280;6045;42.682;23.294;2022-11-21T08:47:57;93688.75;;;8.28;85.64
11971;BME280;6045;42.682;23.294;2022-11-21T08:50:23;93688.16;;;8.38;85.29
11971;BME280;6045;42.682;23.294;2022-11-21T08:52:50;93679.19;;;8.44;85.27
11971;BME280;6045;42.682;23.294;2022-11-21T08:55:17;93687.41;;;8.42;85.06
11971;BME280;6045;42.682;23.294;2022-11-21T08:57:46;93687.59;;;8.52;85.03
11971;BME280;6045;42.682;23.294;2022-11-21T09:00:13;93688.72;;;8.56;85.69
11971;BME280;6045;42.682;23.294;2022-11-21T09:02:40;93685.09;;;8.62;85.38
11971;BME280;6045;42.682;23.294;2022-11-21T09:05:08;93683.97;;;8.58;84.25
11971;BME280;6045;42.682;23.294;2022-11-21T09:07:35;93703.53;;;8.64;84.24
11971;BME280;6045;42.682;23.294;2022-11-21T09:10:02;93686.38;;;8.60;83.82
11971;BME280;6045;42.682;23.294;2022-11-21T09:12:29;93706.66;;;8.61;83.61
11971;BME280;6045;42.682;23.294;2022-11-21T09:14:58;93702.69;;;8.47;82.80
11971;BME280;6045;42.682;23.294;2022-11-21T09:17:42;93712.03;;;8.49;84.48
11971;BME280;6045;42.682;23.294;2022-11-21T09:20:26;93718.56;;;8.42;84.81
11971;BME280;6045;42.682;23.294;2022-11-21T09:22:53;93718.28;;;8.55;85.08
11971;BME280;6045;42.682;23.294;2022-11-21T09:25:19;93712.88;;;8.50;85.39
11971;BME280;6045;42.682;23.294;2022-11-21T09:27:46;93713.69;;;8.39;84.63
11971;BME280;6045;42.682;23.294;2022-11-21T09:30:14;93708.66;;;8.25;85.72
11971;BME280;6045;42.682;23.294;2022-11-21T09:32:41;93719.19;;;8.32;86.31
11971;BME280;6045;42.682;23.294;2022-11-21T09:35:08;93718.34;;;8.32;86.43
11971;BME280;6045;42.682;23.294;2022-11-21T09:37:35;93727.47;;;8.07;86.38
11971;BME280;6045;42.682;23.294;2022-11-21T09:40:03;93717.34;;;8.21;86.50
11971;BME280;6045;42.682;23.294;2022-11-21T09:45:25;93713.66;;;8.10;85.68
11971;BME280;6045;42.682;23.294;2022-11-21T09:47:55;93717.00;;;8.17;85.30
11971;BME280;6045;42.682;23.294;2022-11-21T09:50:28;93715.00;;;8.24;85.49
11971;BME280;6045;42.682;23.294;2022-11-21T09:53:01;93724.28;;;7.82;85.29
11971;BME280;6045;42.682;23.294;2022-11-21T09:55:36;93720.50;;;8.06;86.24
11971;BME280;6045;42.682;23.294;2022-11-21T09:58:13;93726.84;;;8.17;86.24
11971;BME280;6045;42.682;23.294;2022-11-21T10:00:43;93737.63;;;8.10;86.36
11971;BME280;6045;42.682;23.294;2022-11-21T10:03:11;93727.56;;;8.01;85.60
11971;BME280;6045;42.682;23.294;2022-11-21T10:05:44;93725.31;;;7.93;86.31
11971;BME280;6045;42.682;23.294;2022-11-21T10:08:21;93745.88;;;7.97;86.35
11971;BME280;6045;42.682;23.294;2022-11-21T10:10:54;93748.44;;;7.92;85.89
11971;BME280;6045;42.682;23.294;2022-11-21T10:13:41;93740.81;;;7.96;86.36
11971;BME280;6045;42.682;23.294;2022-11-21T10:16:17;93732.97;;;7.66;86.31
11971;BME280;6045;42.682;23.294;2022-11-21T10:21:53;93749.34;;;7.98;86.25
11971;BME280;6045;42.682;23.294;2022-11-21T10:24:38;93749.69;;;8.01;85.87
11971;BME280;6045;42.682;23.294;2022-11-21T10:27:11;93749.13;;;7.88;85.65
11971;BME280;6045;42.682;23.294;2022-11-21T10:29:44;93753.28;;;7.95;86.95
11971;BME280;6045;42.682;23.294;2022-11-21T10:32:19;93751.59;;;8.17;86.76
11971;BME280;6045;42.682;23.294;2022-11-21T10:34:50;93755.22;;;8.11;86.57
11971;BME280;6045;42.682;23.294;2022-11-21T10:37:28;93752.66;;;8.16;86.78
11971;BME280;6045;42.682;23.294;2022-11-21T10:40:05;93754.75;;;8.14;86.12
11971;BME280;6045;42.682;23.294;2022-11-21T10:42:36;93760.25;;;8.24;86.27
11971;BME280;6045;42.682;23.294;2022-11-21T10:45:07;93765.97;;;8.16;86.51
11971;BME280;6045;42.682;23.294;2022-11-21T10:47:45;93764.22;;;8.10;86.01
11971;BME280;6045;42.682;23.294;2022-11-21T10:50:22;93759.25;;;8.14;85.91
11971;BME280;6045;42.682;23.294;2022-11-21T10:53:02;93753.13;;;8.13;86.25
11971;BME280;6045;42.682;23.294;2022-11-21T10:56:00;93758.09;;;8.21;85.75
11971;BME280;6045;42.682;23.294;2022-11-21T10:58:34;93761.53;;;8.22;85.64
11971;BME280;6045;42.682;23.294;2022-11-21T11:01:01;93761.69;;;8.15;85.35
11971;BME280;6045;42.682;23.294;2022-11-21T11:03:30;93759.41;;;8.07;86.32
11971;BME280;6045;42.682;23.294;2022-11-21T11:05:57;93768.25;;;7.73;85.34
11971;BME280;6045;42.682;23.294;2022-11-21T11:08:24;93764.41;;;7.81;86.63
11971;BME280;6045;42.682;23.294;2022-11-21T11:11:04;93773.50;;;7.96;87.19
11971;BME280;6045;42.682;23.294;2022-11-21T11:13:32;93761.84;;;7.97;87.67
11971;BME280;6045;42.682;23.294;2022-11-21T11:16:15;93770.66;;;7.86;87.60
11971;BME280;6045;42.682;23.294;2022-11-21T11:18:51;93767.31;;;7.91;87.85
11971;BME280;6045;42.682;23.294;2022-11-21T11:21:21;93759.16;;;8.09;87.77
11971;BME280;6045;42.682;23.294;2022-11-21T11:23:50;93750.00;;;8.28;86.61
11971;BME280;6045;42.682;23.294;2022-11-21T11:26:21;93754.84;;;8.31;86.34
11971;BME280;6045;42.682;23.294;2022-11-21T11:28:48;93758.41;;;8.37;86.10
11971;BME280;6045;42.682;23.294;2022-11-21T11:31:15;93749.84;;;8.35;85.74
11971;BME280;6045;42.682;23.294;2022-11-21T11:33:51;93754.81;;;8.43;86.38
11971;BME280;6045;42.682;23.294;2022-11-21T11:36:35;93759.81;;;8.27;85.61
11971;BME280;6045;42.682;23.294;2022-11-21T11:39:12;93754.03;;;8.31;85.25
11971;BME280;6045;42.682;23.294;2022-11-21T11:44:59;93753.56;;;8.34;85.14
11971;BME280;6045;42.682;23.294;2022-11-21T11:47:51;93755.03;;;8.41;84.37
11971;BME280;6045;42.682;23.294;2022-11-21T11:50:23;93753.06;;;8.37;83.72
11971;BME280;6045;42.682;23.294;2022-11-21T11:53:00;93751.47;;;8.24;82.96
11971;BME280;6045;42.682;23.294;2022-11-21T11:55:34;93745.09;;;8.25;83.15
11971;BME280;6045;42.682;23.294;2022-11-21T11:58:06;93749.94;;;8.00;82.63
11971;BME280;6045;42.682;23.294;2022-11-21T12:00:40;93745.53;;;8.05;83.50
11971;BME280;6045;42.682;23.294;2022-11-21T12:03:12;93753.63;;;7.99;84.42
11971;BME280;6045;42.682;23.294;2022-11-21T12:05:51;93750.78;;;7.89;85.12
11971;BME280;6045;42.682;23.294;2022-11-21T12:08:25;93755.34;;;8.05;84.94
11971;BME280;6045;42.682;23.294;2022-11-21T12:10:55;93764.81;;;8.12;84.84
11971;BME280;6045;42.682;23.294;2022-11-21T12:13:43;93759.59;;;8.17;82.79
11971;BME280;6045;42.682;23.294;2022-11-21T12:16:16;93760.88;;;8.27;83.21
11971;BME280;6045;42.682;23.294;2022-11-21T12:18:50;93763.00;;;8.41;83.65
11971;BME280;6045;42.682;23.294;2022-11-21T12:21:21;93761.06;;;8.37;83.23
11971;BME280;6045;42.682;23.294;2022-11-21T12:23:49;93761.06;;;8.25;84.00
11971;BME280;6045;42.682;23.294;2022-11-21T12:26:26;93764.81;;;8.12;83.51
11971;BME280;6045;42.682;23.294;2022-11-21T12:29:17;93765.25;;;8.33;83.11
11971;BME280;6045;42.682;23.294;2022-11-21T12:31:57;93759.22;;;8.25;82.51
11971;BME280;6045;42.682;23.294;2022-11-21T12:34:40;93764.78;;;8.24;82.14
11971;BME280;6045;42.682;23.294;2022-11-21T12:37:22;93763.72;;;8.25;82.30
11971;BME280;6045;42.682;23.294;2022-11-21T12:40:05;93777.44;;;8.17;81.90
11971;BME280;6045;42.682;23.294;2022-11-21T12:42:40;93780.75;;;8.24;81.36
11971;BME280;6045;42.682;23.294;2022-11-21T12:45:30;93773.69;;;8.30;82.39
11971;BME280;6045;42.682;23.294;2022-11-21T12:48:11;93770.34;;;8.22;81.75
11971;BME280;6045;42.682;23.294;2022-11-21T12:51:10;93772.19;;;8.22;82.03
11971;BME280;6045;42.682;23.294;2022-11-21T12:54:05;93775.91;;;8.33;81.88
11971;BME280;6045;42.682;23.294;2022-11-21T12:56:58;93767.56;;;8.29;82.28
11971;BME280;6045;42.682;23.294;2022-11-21T12:59:30;93774.88;;;8.34;82.11
11971;BME280;6045;42.682;23.294;2022-11-21T13:02:04;93783.59;;;8.46;82.69
11971;BME280;6045;42.682;23.294;2022-11-21T13:04:39;93788.19;;;8.62;81.77
11971;BME280;6045;42.682;23.294;2022-11-21T13:07:07;93782.22;;;8.43;80.52
11971;BME280;6045;42.682;23.294;2022-11-21T13:09:37;93789.59;;;8.53;81.24
11971;BME280;6045;42.682;23.294;2022-11-21T13:12:11;93787.06;;;8.46;79.83
11971;BME280;6045;42.682;23.294;2022-11-21T13:14:43;93791.50;;;8.17;80.14
11971;BME280;6045;42.682;23.294;2022-11-21T13:17:22;93797.13;;;8.04;81.39
11971;BME280;6045;42.682;23.294;2022-11-21T13:19:56;93789.63;;;7.90;81.46
11971;BME280;6045;42.682;23.294;2022-11-21T13:22:46;93793.09;;;7.90;81.21
11971;BME280;6045;42.682;23.294;2022-11-21T13:25:34;93790.88;;;7.87;80.66
11971;BME280;6045;42.682;23.294;2022-11-21T13:31:25;93800.13;;;7.85;80.79
11971;BME280;6045;42.682;23.294;2022-11-21T13:33:53;93807.34;;;7.84;80.74
11971;BME280;6045;42.682;23.294;2022-11-21T13:36:39;93809.97;;;7.73;81.68
11971;BME280;6045;42.682;23.294;2022-11-21T13:39:35;93806.28;;;7.74;80.47
11971;BME280;6045;42.682;23.294;2022-11-21T13:42:14;93794.25;;;7.71;81.68
11971;BME280;6045;42.682;23.294;2022-11-21T13:45:36;93800.03;;;7.68;81.41
11971;BME280;6045;42.682;23.294;2022-11-21T13:48:42;93800.84;;;7.57;81.18
11971;BME280;6045;42.682;23.294;2022-11-21T13:51:26;93804.19;;;7.76;82.41
11971;BME280;6045;42.682;23.294;2022-11-21T13:54:20;93806.16;;;7.69;81.55
11971;BME280;6045;42.682;23.294;2022-11-21T13:57:03;93800.59;;;7.70;82.71
11971;BME280;6045;42.682;23.294;2022-11-21T13:59:53;93807.31;;;7.73;83.68
11971;BME280;6045;42.682;23.294;2022-11-21T14:02:52;93812.53;;;7.68;84.93
11971;BME280;6045;42.682;23.294;2022-11-21T14:05:50;93797.38;;;7.68;84.59
11971;BME280;6045;42.682;23.294;2022-11-21T14:08:22;93793.09;;;7.79;84.03
11971;BME280;6045;42.682;23.294;2022-11-21T14:10:51;93790.56;;;7.84;83.28
11971;BME280;6045;42.682;23.294;2022-11-21T14:13:22;93784.56;;;7.77;82.52
11971;BME280;6045;42.682;23.294;2022-11-21T14:16:04;93779.44;;;7.75;82.46
11971;BME280;6045;42.682;23.294;2022-11-21T14:18:34;93791.28;;;7.68;81.45
11971;BME280;6045;42.682;23.294;2022-11-21T14:21:04;93790.78;;;7.71;81.38
11971;BME280;6045;42.682;23.294;2022-11-21T14:23:34;93798.75;;;7.82;80.31
11971;BME280;6045;42.682;23.294;2022-11-21T14:26:04;93799.56;;;7.83;81.08
11971;BME280;6045;42.682;23.294;2022-11-21T14:28:32;93792.06;;;7.68;82.07
11971;BME280;6045;42.682;23.294;2022-11-21T14:31:05;93795.28;;;7.70;81.75
11971;BME280;6045;42.682;23.294;2022-11-21T14:33:33;93805.00;;;7.76;81.82
11971;BME280;6045;42.682;23.294;2022-11-21T14:36:03;93805.47;;;7.73;81.69
11971;BME280;6045;42.682;23.294;2022-11-21T14:38:34;93806.88;;;7.64;81.43
11971;BME280;6045;42.682;23.294;2022-11-21T14:41:25;93797.97;;;7.58;81.91
11971;BME280;6045;42.682;23.294;2022-11-21T14:44:13;93791.38;;;7.61;81.31
11971;BME280;6045;42.682;23.294;2022-11-21T14:46:43;93811.03;;;7.48;80.02
11971;BME280;6045;42.682;23.294;2022-11-21T14:49:21;93818.53;;;7.40;79.35
11971;BME280;6045;42.682;23.294;2022-11-21T14:51:50;93821.59;;;7.14;79.59
11971;BME280;6045;42.682;23.294;2022-11-21T14:54:19;93820.03;;;7.24;80.92
11971;BME280;6045;42.682;23.294;2022-11-21T14:56:51;93819.00;;;7.25;81.37
11971;BME280;6045;42.682;23.294;2022-11-21T14:59:23;93833.19;;;7.31;81.06
11971;BME280;6045;42.682;23.294;2022-11-21T15:01:58;93840.25;;;7.25;80.61
11971;BME280;6045;42.682;23.294;2022-11-21T15:04:28;93845.22;;;7.33;81.01
11971;BME280;6045;42.682;23.294;2022-11-21T15:06:55;93841.28;;;7.36;80.79
11971;BME280;6045;42.682;23.294;2022-11-21T15:09:22;93847.41;;;7.25;80.80
11971;BME280;6045;42.682;23.294;2022-11-21T15:11:51;93839.88;;;7.22;81.44
11971;BME280;6045;42.682;23.294;2022-11-21T15:14:22;93838.63;;;7.24;80.63
11971;BME280;6045;42.682;23.294;2022-11-21T15:16:55;93853.59;;;7.07;79.76
11971;BME280;6045;42.682;23.294;2022-11-21T15:19:25;93862.44;;;6.89;80.85
11971;BME280;6045;42.682;23.294;2022-11-21T15:21:54;93856.13;;;7.02;80.93
11971;BME280;6045;42.682;23.294;2022-11-21T15:24:38;93841.16;;;7.19;81.38
11971;BME280;6045;42.682;23.294;2022-11-21T15:27:30;93842.44;;;7.28;81.87
11971;BME280;6045;42.682;23.294;2022-11-21T15:30:03;93834.00;;;7.31;82.15
11971;BME280;6045;42.682;23.294;2022-11-21T15:32:32;93825.56;;;7.23;81.64
11971;BME280;6045;42.682;23.294;2022-11-21T15:34:59;93829.84;;;7.24;82.06
11971;BME280;6045;42.682;23.294;2022-11-21T15:37:25;93839.88;;;7.22;81.74
11971;BME280;6045;42.682;23.294;2022-11-21T15:39:52;93838.91;;;7.05;81.81
11971;BME280;6045;42.682;23.294;2022-11-21T15:42:36;93842.91;;;6.84;81.56
11971;BME280;6045;42.682;23.294;2022-11-21T15:45:22;93846.50;;;6.89;82.27
11971;BME280;6045;42.682;23.294;2022-11-21T15:47:52;93842.81;;;6.90;82.31
11971;BME280;6045;42.682;23.294;2022-11-21T15:50:22;93836.13;;;7.00;82.93
11971;BME280;6045;42.682;23.294;2022-11-21T15:52:50;93834.09;;;7.02;83.46
11971;BME280;6045;42.682;23.294;2022-11-21T15:55:19;93835.00;;;7.07;82.55
11971;BME280;6045;42.682;23.294;2022-11-21T15:57:49;93830.47;;;6.96;83.16
11971;BME280;6045;42.682;23.294;2022-11-21T16:00:19;93832.78;;;6.63;82.29
11971;BME280;6045;42.682;23.294;2022-11-21T16:02:46;93840.97;;;6.61;83.82
11971;BME280;6045;42.682;23.294;2022-11-21T16:05:14;93838.19;;;6.56;83.42
11971;BME280;6045;42.682;23.294;2022-11-21T16:07:41;93834.00;;;6.49;84.73
11971;BME280;6045;42.682;23.294;2022-11-21T16:10:09;93843.25;;;6.58;85.35
11971;BME280;6045;42.682;23.294;2022-11-21T16:12:35;93845.91;;;6.58;85.52
11971;BME280;6045;42.682;23.294;2022-11-21T16:15:03;93857.22;;;6.53;83.93
11971;BME280;6045;42.682;23.294;2022-11-21T16:17:29;93840.31;;;6.66;83.69
11971;BME280;6045;42.682;23.294;2022-11-21T16:19:56;93853.47;;;6.72;82.15